sensor_id;sensor_type;location;lat;lon;timestamp;temperature;humidity
46932;DHT22;32670;51.464;11.964;2023-01-28T00:02:15;20.70;52.10
46932;DHT22;32670;51.464;11.964;2023-01-28T00:04:40;20.70;51.70
46932;DHT22;32670;51.464;11.964;2023-01-28T00:07:06;20.70;51.70
46932;DHT22;32670;51.464;11.964;2023-01-28T00:09:31;20.70;52.10
46932;DHT22;32670;51.464;11.964;2023-01-28T00:11:56;20.70;52.20
46932;DHT22;32670;51.464;11.964;2023-01-28T00:14:23;20.80;52.40
46932;DHT22;32670;51.464;11.964;2023-01-28T00:16:48;20.80;52.50
46932;DHT22;32670;51.464;11.964;2023-01-28T00:19:14;20.80;52.50
46932;DHT22;32670;51.464;11.964;2023-01-28T00:21:39;20.80;52.60
46932;DHT22;32670;51.464;11.964;2023-01-28T00:24:05;20.80;52.70
46932;DHT22;32670;51.464;11.964;2023-01-28T00:26:31;20.80;52.50
46932;DHT22;32670;51.464;11.964;2023-01-28T00:28:57;20.80;52.60
46932;DHT22;32670;51.464;11.964;2023-01-28T00:31:25;20.80;52.70
46932;DHT22;32670;51.464;11.964;2023-01-28T00:33:52;20.80;52.50
46932;DHT22;32670;51.464;11.964;2023-01-28T00:36:19;20.80;52.40
46932;DHT22;32670;51.464;11.964;2023-01-28T00:38:57;20.80;52.50
46932;DHT22;32670;51.464;11.964;2023-01-28T00:41:25;20.80;52.60
46932;DHT22;32670;51.464;11.964;2023-01-28T00:43:51;20.80;52.50
46932;DHT22;32670;51.464;11.964;2023-01-28T00:46:18;20.80;52.50
46932;DHT22;32670;51.464;11.964;2023-01-28T00:48:45;20.80;52.50
46932;DHT22;32670;51.464;11.964;2023-01-28T00:51:12;20.80;52.60
46932;DHT22;32670;51.464;11.964;2023-01-28T00:53:38;20.90;52.80
46932;DHT22;32670;51.464;11.964;2023-01-28T00:56:05;20.80;52.90
46932;DHT22;32670;51.464;11.964;2023-01-28T00:58:31;20.90;52.80
46932;DHT22;32670;51.464;11.964;2023-01-28T01:01:06;20.90;52.80
46932;DHT22;32670;51.464;11.964;2023-01-28T01:03:32;20.90;52.90
46932;DHT22;32670;51.464;11.964;2023-01-28T01:05:57;20.90;52.90
46932;DHT22;32670;51.464;11.964;2023-01-28T01:08:22;20.90;53.00
46932;DHT22;32670;51.464;11.964;2023-01-28T01:10:59;20.90;53.20
46932;DHT22;32670;51.464;11.964;2023-01-28T01:13:25;20.90;53.00
46932;DHT22;32670;51.464;11.964;2023-01-28T01:15:50;20.80;52.90
46932;DHT22;32670;51.464;11.964;2023-01-28T01:18:25;20.90;53.10
46932;DHT22;32670;51.464;11.964;2023-01-28T01:20:50;20.90;53.10
46932;DHT22;32670;51.464;11.964;2023-01-28T01:23:21;20.90;53.20
46932;DHT22;32670;51.464;11.964;2023-01-28T01:25:46;20.90;53.40
46932;DHT22;32670;51.464;11.964;2023-01-28T01:28:12;20.90;53.50
46932;DHT22;32670;51.464;11.964;2023-01-28T01:30:37;20.90;53.60
46932;DHT22;32670;51.464;11.964;2023-01-28T01:33:02;20.80;53.40
46932;DHT22;32670;51.464;11.964;2023-01-28T01:35:28;20.80;53.40
46932;DHT22;32670;51.464;11.964;2023-01-28T01:37:54;20.90;53.60
46932;DHT22;32670;51.464;11.964;2023-01-28T01:40:19;20.90;53.50
46932;DHT22;32670;51.464;11.964;2023-01-28T01:42:45;20.90;53.80
46932;DHT22;32670;51.464;11.964;2023-01-28T01:45:12;21.00;53.60
46932;DHT22;32670;51.464;11.964;2023-01-28T01:47:56;20.90;53.70
46932;DHT22;32670;51.464;11.964;2023-01-28T01:50:48;20.90;53.50
46932;DHT22;32670;51.464;11.964;2023-01-28T01:53:17;21.00;53.50
46932;DHT22;32670;51.464;11.964;2023-01-28T01:55:49;21.00;53.30
46932;DHT22;32670;51.464;11.964;2023-01-28T01:58:17;21.00;53.20
46932;DHT22;32670;51.464;11.964;2023-01-28T02:00:43;21.00;53.30
46932;DHT22;32670;51.464;11.964;2023-01-28T02:03:10;21.00;53.20
46932;DHT22;32670;51.464;11.964;2023-01-28T02:05:36;21.00;53.30
46932;DHT22;32670;51.464;11.964;2023-01-28T02:08:02;21.00;53.30
46932;DHT22;32670;51.464;11.964;2023-01-28T02:11:02;21.00;53.20
46932;DHT22;32670;51.464;11.964;2023-01-28T02:13:32;21.00;53.30
46932;DHT22;32670;51.464;11.964;2023-01-28T02:16:00;21.00;53.20
46932;DHT22;32670;51.464;11.964;2023-01-28T02:18:25;21.00;53.30
46932;DHT22;32670;51.464;11.964;2023-01-28T02:24:17;21.00;53.50
46932;DHT22;32670;51.464;11.964;2023-01-28T02:27:09;21.00;53.50
46932;DHT22;32670;51.464;11.964;2023-01-28T02:32:46;21.10;53.50
46932;DHT22;32670;51.464;11.964;2023-01-28T02:35:14;21.10;53.60
46932;DHT22;32670;51.464;11.964;2023-01-28T02:37:56;21.10;53.60
46932;DHT22;32670;51.464;11.964;2023-01-28T02:40:29;21.10;53.70
46932;DHT22;32670;51.464;11.964;2023-01-28T02:42:56;21.10;53.60
46932;DHT22;32670;51.464;11.964;2023-01-28T02:45:25;21.10;53.60
46932;DHT22;32670;51.464;11.964;2023-01-28T02:48:11;21.10;53.70
46932;DHT22;32670;51.464;11.964;2023-01-28T02:51:04;21.10;53.70
46932;DHT22;32670;51.464;11.964;2023-01-28T02:53:37;21.10;53.90
46932;DHT22;32670;51.464;11.964;2023-01-28T02:58:43;21.10;53.50
46932;DHT22;32670;51.464;11.964;2023-01-28T03:01:32;21.10;53.60
46932;DHT22;32670;51.464;11.964;2023-01-28T03:04:02;21.10;53.70
46932;DHT22;32670;51.464;11.964;2023-01-28T03:06:36;21.10;52.80
46932;DHT22;32670;51.464;11.964;2023-01-28T03:09:06;21.10;53.50
46932;DHT22;32670;51.464;11.964;2023-01-28T03:12:15;21.10;53.50
46932;DHT22;32670;51.464;11.964;2023-01-28T03:15:18;21.20;54.00
46932;DHT22;32670;51.464;11.964;2023-01-28T03:18:16;21.10;54.10
46932;DHT22;32670;51.464;11.964;2023-01-28T03:24:13;21.10;54.10
46932;DHT22;32670;51.464;11.964;2023-01-28T03:27:04;21.10;54.20
46932;DHT22;32670;51.464;11.964;2023-01-28T03:29:50;21.20;54.30
46932;DHT22;32670;51.464;11.964;2023-01-28T03:32:38;21.20;54.30
46932;DHT22;32670;51.464;11.964;2023-01-28T03:35:28;21.10;54.50
46932;DHT22;32670;51.464;11.964;2023-01-28T03:38:13;21.10;54.30
46932;DHT22;32670;51.464;11.964;2023-01-28T03:41:11;21.10;54.20
46932;DHT22;32670;51.464;11.964;2023-01-28T03:43:37;21.10;54.40
46932;DHT22;32670;51.464;11.964;2023-01-28T03:46:03;21.10;54.20
46932;DHT22;32670;51.464;11.964;2023-01-28T03:48:31;21.10;54.20
46932;DHT22;32670;51.464;11.964;2023-01-28T03:50:57;21.10;54.20
46932;DHT22;32670;51.464;11.964;2023-01-28T03:53:25;21.10;54.20
46932;DHT22;32670;51.464;11.964;2023-01-28T03:55:52;21.10;54.20
46932;DHT22;32670;51.464;11.964;2023-01-28T03:58:18;21.10;54.30
46932;DHT22;32670;51.464;11.964;2023-01-28T04:00:44;21.10;54.20
46932;DHT22;32670;51.464;11.964;2023-01-28T04:03:14;21.10;54.20
46932;DHT22;32670;51.464;11.964;2023-01-28T04:05:56;21.10;54.20
46932;DHT22;32670;51.464;11.964;2023-01-28T04:08:22;21.10;54.20
46932;DHT22;32670;51.464;11.964;2023-01-28T04:10:47;21.10;54.20
46932;DHT22;32670;51.464;11.964;2023-01-28T04:13:13;21.10;54.20
46932;DHT22;32670;51.464;11.964;2023-01-28T04:15:38;21.10;54.20
46932;DHT22;32670;51.464;11.964;2023-01-28T04:18:04;21.10;54.60
46932;DHT22;32670;51.464;11.964;2023-01-28T04:20:29;21.10;55.20
46932;DHT22;32670;51.464;11.964;2023-01-28T04:22:55;21.10;54.90
46932;DHT22;32670;51.464;11.964;2023-01-28T04:25:20;21.20;54.70
46932;DHT22;32670;51.464;11.964;2023-01-28T04:27:46;21.20;54.80
46932;DHT22;32670;51.464;11.964;2023-01-28T04:30:11;21.20;54.70
46932;DHT22;32670;51.464;11.964;2023-01-28T04:32:37;21.20;54.80
46932;DHT22;32670;51.464;11.964;2023-01-28T04:35:02;21.20;54.80
46932;DHT22;32670;51.464;11.964;2023-01-28T04:37:28;21.20;54.70
46932;DHT22;32670;51.464;11.964;2023-01-28T04:39:53;21.20;54.80
46932;DHT22;32670;51.464;11.964;2023-01-28T04:42:19;21.20;55.00
46932;DHT22;32670;51.464;11.964;2023-01-28T04:44:44;21.20;55.00
46932;DHT22;32670;51.464;11.964;2023-01-28T04:47:09;21.20;55.20
46932;DHT22;32670;51.464;11.964;2023-01-28T04:49:35;21.20;55.30
46932;DHT22;32670;51.464;11.964;2023-01-28T04:52:00;21.20;55.20
46932;DHT22;32670;51.464;11.964;2023-01-28T04:54:26;21.20;55.40
46932;DHT22;32670;51.464;11.964;2023-01-28T04:56:51;21.20;55.30
46932;DHT22;32670;51.464;11.964;2023-01-28T04:59:17;21.20;55.20
46932;DHT22;32670;51.464;11.964;2023-01-28T05:01:44;21.20;55.30
46932;DHT22;32670;51.464;11.964;2023-01-28T05:04:09;21.20;55.20
46932;DHT22;32670;51.464;11.964;2023-01-28T05:06:35;21.20;55.70
46932;DHT22;32670;51.464;11.964;2023-01-28T05:09:00;21.20;55.10
46932;DHT22;32670;51.464;11.964;2023-01-28T05:11:26;21.20;55.20
46932;DHT22;32670;51.464;11.964;2023-01-28T05:13:53;21.20;55.20
46932;DHT22;32670;51.464;11.964;2023-01-28T05:16:19;21.20;55.00
46932;DHT22;32670;51.464;11.964;2023-01-28T05:18:44;21.20;55.10
46932;DHT22;32670;51.464;11.964;2023-01-28T05:21:12;21.20;55.00
46932;DHT22;32670;51.464;11.964;2023-01-28T05:23:38;21.20;55.00
46932;DHT22;32670;51.464;11.964;2023-01-28T05:26:04;21.20;55.10
46932;DHT22;32670;51.464;11.964;2023-01-28T05:28:29;21.20;55.20
46932;DHT22;32670;51.464;11.964;2023-01-28T05:30:55;21.30;55.20
46932;DHT22;32670;51.464;11.964;2023-01-28T05:33:20;21.30;55.20
46932;DHT22;32670;51.464;11.964;2023-01-28T05:35:46;21.20;55.10
46932;DHT22;32670;51.464;11.964;2023-01-28T05:38:13;21.20;55.20
46932;DHT22;32670;51.464;11.964;2023-01-28T05:40:39;21.30;55.20
46932;DHT22;32670;51.464;11.964;2023-01-28T05:43:04;21.20;55.20
46932;DHT22;32670;51.464;11.964;2023-01-28T05:45:30;21.30;55.30
46932;DHT22;32670;51.464;11.964;2023-01-28T05:47:55;21.20;55.20
46932;DHT22;32670;51.464;11.964;2023-01-28T05:50:21;21.30;55.30
46932;DHT22;32670;51.464;11.964;2023-01-28T05:52:46;21.20;55.30
46932;DHT22;32670;51.464;11.964;2023-01-28T05:55:11;21.20;55.40
46932;DHT22;32670;51.464;11.964;2023-01-28T05:57:37;21.20;55.60
46932;DHT22;32670;51.464;11.964;2023-01-28T06:00:03;21.20;55.60
46932;DHT22;32670;51.464;11.964;2023-01-28T06:02:29;21.20;55.60
46932;DHT22;32670;51.464;11.964;2023-01-28T06:04:55;21.20;55.40
46932;DHT22;32670;51.464;11.964;2023-01-28T06:07:20;21.30;55.60
46932;DHT22;32670;51.464;11.964;2023-01-28T06:09:46;21.20;55.40
46932;DHT22;32670;51.464;11.964;2023-01-28T06:12:12;21.30;55.40
46932;DHT22;32670;51.464;11.964;2023-01-28T06:14:38;21.20;55.60
46932;DHT22;32670;51.464;11.964;2023-01-28T06:17:03;21.20;55.60
46932;DHT22;32670;51.464;11.964;2023-01-28T06:19:29;21.20;55.80
46932;DHT22;32670;51.464;11.964;2023-01-28T06:21:54;21.20;55.80
46932;DHT22;32670;51.464;11.964;2023-01-28T06:24:20;21.30;55.90
46932;DHT22;32670;51.464;11.964;2023-01-28T06:26:45;21.20;55.90
46932;DHT22;32670;51.464;11.964;2023-01-28T06:29:11;21.20;55.90
46932;DHT22;32670;51.464;11.964;2023-01-28T06:31:36;21.20;55.90
46932;DHT22;32670;51.464;11.964;2023-01-28T06:34:02;21.30;55.90
46932;DHT22;32670;51.464;11.964;2023-01-28T06:36:27;21.30;55.80
46932;DHT22;32670;51.464;11.964;2023-01-28T06:38:53;21.20;55.80
46932;DHT22;32670;51.464;11.964;2023-01-28T06:41:18;21.30;55.80
46932;DHT22;32670;51.464;11.964;2023-01-28T06:43:44;21.20;55.80
46932;DHT22;32670;51.464;11.964;2023-01-28T06:46:09;21.30;55.80
46932;DHT22;32670;51.464;11.964;2023-01-28T06:48:35;21.20;56.00
46932;DHT22;32670;51.464;11.964;2023-01-28T06:51:00;21.20;54.70
46932;DHT22;32670;51.464;11.964;2023-01-28T06:53:25;21.20;54.20
46932;DHT22;32670;51.464;11.964;2023-01-28T06:55:51;21.20;55.20
46932;DHT22;32670;51.464;11.964;2023-01-28T06:58:17;21.30;55.30
46932;DHT22;32670;51.464;11.964;2023-01-28T07:00:42;21.30;55.30
46932;DHT22;32670;51.464;11.964;2023-01-28T07:03:07;21.30;55.40
46932;DHT22;32670;51.464;11.964;2023-01-28T07:05:33;21.30;55.70
46932;DHT22;32670;51.464;11.964;2023-01-28T07:07:58;21.30;55.90
46932;DHT22;32670;51.464;11.964;2023-01-28T07:10:24;21.30;56.40
46932;DHT22;32670;51.464;11.964;2023-01-28T07:12:49;21.30;55.30
46932;DHT22;32670;51.464;11.964;2023-01-28T07:15:15;21.30;54.70
46932;DHT22;32670;51.464;11.964;2023-01-28T07:17:41;21.30;54.70
46932;DHT22;32670;51.464;11.964;2023-01-28T07:20:08;21.40;54.80
46932;DHT22;32670;51.464;11.964;2023-01-28T07:22:36;21.20;42.30
46932;DHT22;32670;51.464;11.964;2023-01-28T07:25:04;20.70;38.10
46932;DHT22;32670;51.464;11.964;2023-01-28T07:27:29;20.30;35.50
46932;DHT22;32670;51.464;11.964;2023-01-28T07:29:55;19.80;33.60
46932;DHT22;32670;51.464;11.964;2023-01-28T07:32:20;19.50;33.10
46932;DHT22;32670;51.464;11.964;2023-01-28T07:34:46;19.20;32.90
46932;DHT22;32670;51.464;11.964;2023-01-28T07:37:11;18.90;32.80
46932;DHT22;32670;51.464;11.964;2023-01-28T07:39:36;18.70;32.40
46932;DHT22;32670;51.464;11.964;2023-01-28T07:42:02;18.60;32.00
46932;DHT22;32670;51.464;11.964;2023-01-28T07:44:27;18.50;31.70
46932;DHT22;32670;51.464;11.964;2023-01-28T07:46:53;18.30;31.80
46932;DHT22;32670;51.464;11.964;2023-01-28T07:49:18;18.10;32.70
46932;DHT22;32670;51.464;11.964;2023-01-28T07:51:44;18.00;32.00
46932;DHT22;32670;51.464;11.964;2023-01-28T07:54:15;18.00;32.00
46932;DHT22;32670;51.464;11.964;2023-01-28T07:56:40;17.90;32.40
46932;DHT22;32670;51.464;11.964;2023-01-28T07:59:06;17.80;32.00
46932;DHT22;32670;51.464;11.964;2023-01-28T08:01:31;17.70;32.20
46932;DHT22;32670;51.464;11.964;2023-01-28T08:03:57;17.60;32.10
46932;DHT22;32670;51.464;11.964;2023-01-28T08:06:22;17.50;31.50
46932;DHT22;32670;51.464;11.964;2023-01-28T08:08:48;17.40;31.90
46932;DHT22;32670;51.464;11.964;2023-01-28T08:11:13;17.40;31.40
46932;DHT22;32670;51.464;11.964;2023-01-28T08:13:39;17.20;31.60
46932;DHT22;32670;51.464;11.964;2023-01-28T08:16:04;17.20;31.50
46932;DHT22;32670;51.464;11.964;2023-01-28T08:18:30;17.10;31.80
46932;DHT22;32670;51.464;11.964;2023-01-28T08:20:57;17.20;31.90
46932;DHT22;32670;51.464;11.964;2023-01-28T08:23:23;17.20;34.40
46932;DHT22;32670;51.464;11.964;2023-01-28T08:25:51;17.50;35.70
46932;DHT22;32670;51.464;11.964;2023-01-28T08:28:17;17.70;35.80
46932;DHT22;32670;51.464;11.964;2023-01-28T08:30:42;18.00;36.50
46932;DHT22;32670;51.464;11.964;2023-01-28T08:33:10;18.10;36.70
46932;DHT22;32670;51.464;11.964;2023-01-28T08:35:36;18.30;37.00
46932;DHT22;32670;51.464;11.964;2023-01-28T08:38:03;18.40;37.40
46932;DHT22;32670;51.464;11.964;2023-01-28T08:40:29;18.50;37.50
46932;DHT22;32670;51.464;11.964;2023-01-28T08:42:55;18.60;38.30
46932;DHT22;32670;51.464;11.964;2023-01-28T08:45:22;18.70;38.00
46932;DHT22;32670;51.464;11.964;2023-01-28T08:47:54;18.80;38.20
46932;DHT22;32670;51.464;11.964;2023-01-28T08:50:20;18.80;38.50
46932;DHT22;32670;51.464;11.964;2023-01-28T08:52:47;18.80;38.50
46932;DHT22;32670;51.464;11.964;2023-01-28T08:55:14;18.90;38.60
46932;DHT22;32670;51.464;11.964;2023-01-28T08:57:40;18.90;38.90
46932;DHT22;32670;51.464;11.964;2023-01-28T09:00:07;19.00;39.30
46932;DHT22;32670;51.464;11.964;2023-01-28T09:02:35;19.00;39.40
46932;DHT22;32670;51.464;11.964;2023-01-28T09:05:01;19.00;39.20
46932;DHT22;32670;51.464;11.964;2023-01-28T09:07:26;19.10;39.60
46932;DHT22;32670;51.464;11.964;2023-01-28T09:09:52;19.10;39.70
46932;DHT22;32670;51.464;11.964;2023-01-28T09:12:17;19.10;40.00
46932;DHT22;32670;51.464;11.964;2023-01-28T09:14:43;19.10;40.20
46932;DHT22;32670;51.464;11.964;2023-01-28T09:17:08;19.20;40.00
46932;DHT22;32670;51.464;11.964;2023-01-28T09:19:34;19.20;40.40
46932;DHT22;32670;51.464;11.964;2023-01-28T09:21:59;19.20;40.90
46932;DHT22;32670;51.464;11.964;2023-01-28T09:24:24;19.30;40.80
46932;DHT22;32670;51.464;11.964;2023-01-28T09:26:50;19.30;41.20
46932;DHT22;32670;51.464;11.964;2023-01-28T09:29:16;19.30;41.20
46932;DHT22;32670;51.464;11.964;2023-01-28T09:31:41;19.30;41.20
46932;DHT22;32670;51.464;11.964;2023-01-28T09:34:08;19.30;41.40
46932;DHT22;32670;51.464;11.964;2023-01-28T09:36:33;19.30;41.40
46932;DHT22;32670;51.464;11.964;2023-01-28T09:38:59;19.40;41.50
46932;DHT22;32670;51.464;11.964;2023-01-28T09:41:31;19.30;41.60
46932;DHT22;32670;51.464;11.964;2023-01-28T09:46:34;19.40;41.70
46932;DHT22;32670;51.464;11.964;2023-01-28T09:49:46;19.40;41.80
46932;DHT22;32670;51.464;11.964;2023-01-28T09:51:53;19.40;41.70
46932;DHT22;32670;51.464;11.964;2023-01-28T09:54:37;19.40;41.80
46932;DHT22;32670;51.464;11.964;2023-01-28T09:57:09;19.40;42.30
46932;DHT22;32670;51.464;11.964;2023-01-28T09:59:36;19.40;42.10
46932;DHT22;32670;51.464;11.964;2023-01-28T10:04:47;19.50;42.20
46932;DHT22;32670;51.464;11.964;2023-01-28T10:07:26;19.50;42.90
46932;DHT22;32670;51.464;11.964;2023-01-28T10:15:26;19.50;42.70
46932;DHT22;32670;51.464;11.964;2023-01-28T10:18:14;19.50;42.60
46932;DHT22;32670;51.464;11.964;2023-01-28T10:20:46;19.50;42.50
46932;DHT22;32670;51.464;11.964;2023-01-28T10:23:38;19.60;42.70
46932;DHT22;32670;51.464;11.964;2023-01-28T10:26:15;19.50;42.50
46932;DHT22;32670;51.464;11.964;2023-01-28T10:28:47;19.50;42.60
46932;DHT22;32670;51.464;11.964;2023-01-28T10:31:16;19.50;42.50
46932;DHT22;32670;51.464;11.964;2023-01-28T10:33:41;19.50;42.70
46932;DHT22;32670;51.464;11.964;2023-01-28T10:36:08;19.50;42.60
46932;DHT22;32670;51.464;11.964;2023-01-28T10:38:34;19.50;42.60
46932;DHT22;32670;51.464;11.964;2023-01-28T10:41:01;19.50;42.60
46932;DHT22;32670;51.464;11.964;2023-01-28T10:43:33;19.60;42.70
46932;DHT22;32670;51.464;11.964;2023-01-28T10:46:19;19.50;42.70
46932;DHT22;32670;51.464;11.964;2023-01-28T10:48:54;19.60;42.80
46932;DHT22;32670;51.464;11.964;2023-01-28T10:51:33;19.60;42.80
46932;DHT22;32670;51.464;11.964;2023-01-28T10:53:59;19.60;42.90
46932;DHT22;32670;51.464;11.964;2023-01-28T10:56:30;19.60;42.80
46932;DHT22;32670;51.464;11.964;2023-01-28T10:58:59;19.60;42.80
46932;DHT22;32670;51.464;11.964;2023-01-28T11:01:40;19.60;42.80
46932;DHT22;32670;51.464;11.964;2023-01-28T11:04:18;19.60;42.80
46932;DHT22;32670;51.464;11.964;2023-01-28T11:06:55;19.60;42.90
46932;DHT22;32670;51.464;11.964;2023-01-28T11:09:23;19.60;42.80
46932;DHT22;32670;51.464;11.964;2023-01-28T11:11:50;19.60;42.90
46932;DHT22;32670;51.464;11.964;2023-01-28T11:14:24;19.60;42.90
46932;DHT22;32670;51.464;11.964;2023-01-28T11:16:52;19.60;42.90
46932;DHT22;32670;51.464;11.964;2023-01-28T11:19:19;19.60;42.90
46932;DHT22;32670;51.464;11.964;2023-01-28T11:21:52;19.60;42.90
46932;DHT22;32670;51.464;11.964;2023-01-28T11:24:22;19.60;43.00
46932;DHT22;32670;51.464;11.964;2023-01-28T11:26:51;19.60;43.00
46932;DHT22;32670;51.464;11.964;2023-01-28T11:31:51;19.60;42.90
46932;DHT22;32670;51.464;11.964;2023-01-28T11:34:18;19.60;43.00
46932;DHT22;32670;51.464;11.964;2023-01-28T11:36:52;19.60;43.00
46932;DHT22;32670;51.464;11.964;2023-01-28T11:39:25;19.60;43.00
46932;DHT22;32670;51.464;11.964;2023-01-28T11:41:53;19.60;43.00
46932;DHT22;32670;51.464;11.964;2023-01-28T11:44:26;19.70;43.00
46932;DHT22;32670;51.464;11.964;2023-01-28T11:47:13;19.60;43.00
46932;DHT22;32670;51.464;11.964;2023-01-28T11:58:51;19.60;43.00
46932;DHT22;32670;51.464;11.964;2023-01-28T12:01:51;19.60;43.10
46932;DHT22;32670;51.464;11.964;2023-01-28T12:05:14;19.70;43.10
46932;DHT22;32670;51.464;11.964;2023-01-28T12:09:59;19.70;43.10
46932;DHT22;32670;51.464;11.964;2023-01-28T12:18:38;19.60;43.10
46932;DHT22;32670;51.464;11.964;2023-01-28T12:21:20;19.70;43.10
46932;DHT22;32670;51.464;11.964;2023-01-28T12:26:58;19.70;43.30
46932;DHT22;32670;51.464;11.964;2023-01-28T12:29:50;19.70;43.20
46932;DHT22;32670;51.464;11.964;2023-01-28T12:32:35;19.70;43.20
46932;DHT22;32670;51.464;11.964;2023-01-28T12:35:18;19.70;43.20
46932;DHT22;32670;51.464;11.964;2023-01-28T12:37:59;19.70;43.20
46932;DHT22;32670;51.464;11.964;2023-01-28T12:41:00;19.70;43.20
46932;DHT22;32670;51.464;11.964;2023-01-28T12:43:42;19.70;43.20
46932;DHT22;32670;51.464;11.964;2023-01-28T12:49:00;19.70;43.20
46932;DHT22;32670;51.464;11.964;2023-01-28T12:51:45;19.70;43.20
46932;DHT22;32670;51.464;11.964;2023-01-28T12:54:31;19.70;43.20
46932;DHT22;32670;51.464;11.964;2023-01-28T12:56:59;19.70;43.20
46932;DHT22;32670;51.464;11.964;2023-01-28T12:59:41;19.70;43.30
46932;DHT22;32670;51.464;11.964;2023-01-28T13:04:46;19.70;43.20
46932;DHT22;32670;51.464;11.964;2023-01-28T13:07:27;19.70;43.30
46932;DHT22;32670;51.464;11.964;2023-01-28T13:10:01;19.70;43.30
46932;DHT22;32670;51.464;11.964;2023-01-28T13:12:30;19.70;43.30
46932;DHT22;32670;51.464;11.964;2023-01-28T13:14:56;19.70;43.40
46932;DHT22;32670;51.464;11.964;2023-01-28T13:17:30;19.70;43.40
46932;DHT22;32670;51.464;11.964;2023-01-28T13:19:57;19.70;43.30
46932;DHT22;32670;51.464;11.964;2023-01-28T13:22:30;19.70;43.30
46932;DHT22;32670;51.464;11.964;2023-01-28T13:24:57;19.70;43.30
46932;DHT22;32670;51.464;11.964;2023-01-28T13:27:37;19.70;43.30
46932;DHT22;32670;51.464;11.964;2023-01-28T13:30:29;19.70;43.30
46932;DHT22;32670;51.464;11.964;2023-01-28T13:33:01;19.70;43.30
46932;DHT22;32670;51.464;11.964;2023-01-28T13:35:36;19.70;43.40
46932;DHT22;32670;51.464;11.964;2023-01-28T13:38:07;19.80;43.40
46932;DHT22;32670;51.464;11.964;2023-01-28T13:40:34;19.70;43.40
46932;DHT22;32670;51.464;11.964;2023-01-28T13:43:05;19.70;43.90
46932;DHT22;32670;51.464;11.964;2023-01-28T13:45:55;19.70;43.80
46932;DHT22;32670;51.464;11.964;2023-01-28T13:51:26;19.70;43.60
46932;DHT22;32670;51.464;11.964;2023-01-28T13:54:11;19.70;43.50
46932;DHT22;32670;51.464;11.964;2023-01-28T13:59:41;19.70;43.50
46932;DHT22;32670;51.464;11.964;2023-01-28T14:02:30;19.80;43.50
46932;DHT22;32670;51.464;11.964;2023-01-28T14:05:24;19.70;43.50
46932;DHT22;32670;51.464;11.964;2023-01-28T14:13:50;19.70;43.50
46932;DHT22;32670;51.464;11.964;2023-01-28T14:16:24;19.70;43.50
46932;DHT22;32670;51.464;11.964;2023-01-28T14:18:55;19.70;43.50
46932;DHT22;32670;51.464;11.964;2023-01-28T14:21:26;19.70;43.50
46932;DHT22;32670;51.464;11.964;2023-01-28T14:23:55;19.70;43.50
46932;DHT22;32670;51.464;11.964;2023-01-28T14:26:33;19.80;43.60
46932;DHT22;32670;51.464;11.964;2023-01-28T14:32:02;19.70;43.50
46932;DHT22;32670;51.464;11.964;2023-01-28T14:34:30;19.70;43.50
46932;DHT22;32670;51.464;11.964;2023-01-28T14:37:00;19.70;43.50
46932;DHT22;32670;51.464;11.964;2023-01-28T14:39:30;19.70;43.50
46932;DHT22;32670;51.464;11.964;2023-01-28T14:41:59;19.70;43.50
46932;DHT22;32670;51.464;11.964;2023-01-28T14:44:38;19.80;43.50
46932;DHT22;32670;51.464;11.964;2023-01-28T14:53:10;19.70;43.50
46932;DHT22;32670;51.464;11.964;2023-01-28T14:58:32;19.80;43.50
46932;DHT22;32670;51.464;11.964;2023-01-28T15:01:00;19.70;43.50
46932;DHT22;32670;51.464;11.964;2023-01-28T15:03:27;19.70;43.50
46932;DHT22;32670;51.464;11.964;2023-01-28T15:06:12;19.80;43.60
46932;DHT22;32670;51.464;11.964;2023-01-28T15:08:37;19.80;43.50
46932;DHT22;32670;51.464;11.964;2023-01-28T15:11:09;19.80;43.60
46932;DHT22;32670;51.464;11.964;2023-01-28T15:13:39;19.80;43.60
46932;DHT22;32670;51.464;11.964;2023-01-28T15:16:05;19.80;43.50
46932;DHT22;32670;51.464;11.964;2023-01-28T15:18:39;19.80;43.60
46932;DHT22;32670;51.464;11.964;2023-01-28T15:21:06;19.80;43.60
46932;DHT22;32670;51.464;11.964;2023-01-28T15:23:34;19.80;43.60
46932;DHT22;32670;51.464;11.964;2023-01-28T15:26:14;19.70;43.50
46932;DHT22;32670;51.464;11.964;2023-01-28T15:28:43;19.80;43.60
46932;DHT22;32670;51.464;11.964;2023-01-28T15:31:34;19.80;43.60
46932;DHT22;32670;51.464;11.964;2023-01-28T15:34:13;19.80;44.10
46932;DHT22;32670;51.464;11.964;2023-01-28T15:36:40;19.80;44.10
46932;DHT22;32670;51.464;11.964;2023-01-28T15:39:13;19.80;43.90
46932;DHT22;32670;51.464;11.964;2023-01-28T15:41:43;19.80;43.90
46932;DHT22;32670;51.464;11.964;2023-01-28T15:46:55;19.80;43.80
46932;DHT22;32670;51.464;11.964;2023-01-28T15:49:26;19.80;43.80
46932;DHT22;32670;51.464;11.964;2023-01-28T15:51:53;19.80;43.70
46932;DHT22;32670;51.464;11.964;2023-01-28T15:54:19;19.80;43.70
46932;DHT22;32670;51.464;11.964;2023-01-28T15:56:44;19.80;43.70
46932;DHT22;32670;51.464;11.964;2023-01-28T15:59:24;19.80;43.70
46932;DHT22;32670;51.464;11.964;2023-01-28T16:01:50;19.80;43.70
46932;DHT22;32670;51.464;11.964;2023-01-28T16:04:27;19.80;43.70
46932;DHT22;32670;51.464;11.964;2023-01-28T16:06:54;19.80;43.70
46932;DHT22;32670;51.464;11.964;2023-01-28T16:09:27;19.80;43.70
46932;DHT22;32670;51.464;11.964;2023-01-28T16:12:04;19.80;43.70
46932;DHT22;32670;51.464;11.964;2023-01-28T16:14:40;19.80;43.70
46932;DHT22;32670;51.464;11.964;2023-01-28T16:17:07;19.80;43.70
46932;DHT22;32670;51.464;11.964;2023-01-28T16:19:40;19.80;43.70
46932;DHT22;32670;51.464;11.964;2023-01-28T16:22:15;19.80;43.70
46932;DHT22;32670;51.464;11.964;2023-01-28T16:24:49;19.80;43.70
46932;DHT22;32670;51.464;11.964;2023-01-28T16:27:20;19.80;43.70
46932;DHT22;32670;51.464;11.964;2023-01-28T16:29:46;19.80;43.70
46932;DHT22;32670;51.464;11.964;2023-01-28T16:32:30;19.80;43.70
46932;DHT22;32670;51.464;11.964;2023-01-28T16:34:59;19.80;43.70
46932;DHT22;32670;51.464;11.964;2023-01-28T16:37:25;19.80;43.70
46932;DHT22;32670;51.464;11.964;2023-01-28T16:39:50;19.80;43.70
46932;DHT22;32670;51.464;11.964;2023-01-28T16:42:16;19.80;43.70
46932;DHT22;32670;51.464;11.964;2023-01-28T16:44:42;19.80;43.70
46932;DHT22;32670;51.464;11.964;2023-01-28T16:47:08;19.80;43.70
46932;DHT22;32670;51.464;11.964;2023-01-28T16:49:34;19.80;43.70
46932;DHT22;32670;51.464;11.964;2023-01-28T16:52:00;19.80;43.70
46932;DHT22;32670;51.464;11.964;2023-01-28T16:54:26;19.80;43.70